Historyczne dane pomiarowe

Dodano dane terminowe – wersja testowa.

Dane z okresu 1951-2019

Wersja bazy: 1.34 [2019-03-16, lista zmian], aktualizacja planowana na 2019-04-15

Dane meteo z obszaru Polski uzyskane na podstawie danych udostępnionych przez Instytut Meteorologii i Gospodarki Wodnej – Państwowy Instytut Badawczy.

 

Wybierz Datę:    

       

TemperaturaWilgotnośćWiatrCiśnienieOpadyŚniegCzas trwania zjawisk
 Stacja t tx tn tng RH VA  wxwx mslp ppp RRR   cm mm wxwxwxwxwxwxwx
1955-03-18-14.6-12.4-16.5- 83.8- 5.0 6.7---- 2.0--177---------
1955-03-19-16.2-13.8-21.3- 78.0- 3.7 15.3---- 4.3--179---------
1955-03-20-12.6-11.9-14.3- 63.3- 4.7 8.7---- 2.3--183---------
1955-03-21 -5.4 -2.8-13.6- 93.3- 8.0 15.3---- 16.5--178---------
1955-03-22 -1.9 0.1 -2.9- 96.8- 7.3 4.3---- 0.8--170---------
1955-03-23 -2.6 -0.4 -4.3- 86.5- 1.3 5.0---- 0.0--166---------
1955-03-24 0.8 3.2 -3.3- 83.5- 7.7 11.7---- 1.1--164---------
1955-03-25 -0.8 3.1 -1.9- 84.8- 3.0 12.0---- 0.0--149---------
1955-03-26 5.2 8.4 -3.1- 67.0- 4.7 8.7---- 0.0--146---------
1955-03-27 0.7 5.1 -1.3- 92.3- 5.7 9.7---- 4.3--141---------
1955-03-28-11.0 0.2-16.0- 53.5- 5.3 2.7---- 4.6--138---------
1955-03-29-10.5 -7.2-12.8- 62.0- 7.7 3.3---- 6.8--144---------
1955-03-30-14.5-11.4-17.0- 88.5- 5.7 4.0---- 9.2--159---------
1955-03-31 -9.4 -6.3-17.0- 42.8- 4.3 3.7---- 0.0--194---------
1955-04-01 -8.0 -5.0-12.5- 70.8- 4.0 3.3---- 2.0--188---------
1955-04-02 -9.7 -6.6-13.7- 86.5- 4.7 3.0---- 0.5--188---------
1955-04-03 -5.6 -1.5 -9.5- 68.8- 0.0 3.3---- 0.0--185---------
1955-04-04 -5.0 -2.6 -6.9- 79.0- 5.3 0.0---- 3.9--182---------
1955-04-05 -5.7 -4.0 -6.4- 92.3- 8.0 5.3---- 6.2--185---------
1955-04-06 -6.0 -3.9 -7.8- 89.3- 5.7 2.3---- 0.0--189---------
1955-04-07 -2.8 0.5 -7.6- 67.3- 1.3 5.3---- 0.8--185---------
1955-04-08 -3.6 -0.8 -4.5- 94.5- 8.0 6.7---- 6.1--181---------
1955-04-09 -7.6 -4.4-11.4- 57.0- 5.7 5.3---- 3.5--190---------
1955-04-10 -6.9 -5.0 -9.4- 71.8- 6.0 5.3---- 2.6--191---------
1955-04-11 -5.8 -4.9 -8.2- 93.8- 6.7 6.0---- 3.5--195---------
1955-04-12 -4.9 -4.0 -5.6- 92.8- 8.0 4.7---- 10.5--196---------
1955-04-13 -4.3 -2.9 -5.7- 92.0- 7.7 6.3---- 3.3--198---------
1955-04-14 -8.1 -3.9 -9.4- 91.8- 5.3 4.0---- 1.6--202---------
1955-04-15 -9.1 -7.3-10.0- 89.0- 8.0 8.0---- 14.1--200---------
1955-04-16 -6.8 -4.8-11.1- 92.8- 8.0 14.3---- 58.2--212---------
244.2 ms

 

Źródłem pochodzenia danych jest Instytut Meteorologii i Gospodarki Wodnej – Państwowy Instytut Badawczy. Dane Instytutu Meteorologii i Gospodarki Wodnej – Państwowego Instytutu Badawczego zostały przetworzone.

Dane źródłowe można odnaleźć na stronie https://dane.imgw.pl